Aérodrome :
LOGIN :

S'inscrire | Disclaimer

   EN    FR    IT 

 










Légende :    VFR   VFR Marginal   IFR   IFR Intensif   IFR Très Intensif
Visi : 
Plafond : 
>= 8 km
>= 3000ft
5 à 8 km
1000 à 3000 ft
1500m à 5 km
500 à 1000 ft
800 à 1500m
200 à 500 ft
< 800m
< 200 ft
Symboles :   Orages  Brouillard  Fortes neiges  Fortes précipitations  Vent > 20 kt
SIGMETs :   Divers  Orages  Givrage  Turbulence  Onde Orograph.  Cendres Volcan.







- Altitude de l'aérodrome : 326 ft
- Code IATA : LCG
- Voir les cartes d'approche


LECO - A Coruna

DERNIER METAR :
  • 251430Z 02008KT 320V060 7000 FEW015 SCT030 16/14 Q1015 NOSIG

METARs EXPIRÉS :
  • 251400Z 01007KT 320V080 6000 SCT012 BKN028 BKN048 15/14 Q1015 NOSIG
  • 251330Z 01006KT 320V060 5000 -RA SCT030 BKN038 15/14 Q1015 NOSIG
  • 251300Z 36006KT 300V060 6000 FEW013 SCT025 BKN030 15/13 Q1015 NOSIG
  • 251230Z 36008KT 320V050 5000 -DZ FEW013 SCT017 BKN045 15/13 Q1015 NOSIG
  • 251200Z 36006KT 320V060 6000 FEW016 BKN032 14/13 Q1015 REDZ NOSIG

TAF TAF LECO
Valide du 25 à 15h jusqu'au 26 à 15h UTC


251400Z 2515/2615 01009KT 8000 SCT014 BKN020 TX19/2515Z TN13/2605Z
TEMPO 2515/2615 3000 RA BKN010
TEMPO 2515/2524 36015G25KT 3000 SHRA SCT030TCU
PROB40
TEMPO 2521/2612 0800 BCFG BKN003
Pas de NOTAMs connus pour ce terrain.
2 SIGMETs publiés pour la FIR Madrid (LECM) :
 
Orages noyés dans la masse
LECM SIGMET 5 VALID 251325/251500 LEVA
LECM MADRID FIR/UIR EMBD TS OBS AT 1325Z S OF LINE N4241 W00827 - N4239 W007 TOP FL390 STNR NC=
Orages noyés dans la masse
LECM SIGMET 4 VALID 251138/251500 LEVA
LECM MADRID FIR/UIR EMBD TS OBS AT 1138Z WI N4115 W00640 - N3911 W00711 - N39 W00438 - N4135 W00426 - N4115 W00640 TOP FL300 MOV N 15KT INTSF=



MET'MAP, la Météo Aéronautique d'un coup d'oeil ! - Copyright ORBIFLY Décembre 2007 - Disclaimer

ORBIFLY MET'MAP TEAM :

Programmation & Développement : Alexandra Zaïnal
Conception & Développement : Baudouin d'Aumeries
Co-Programmation & Développement : Marc-Olivier Méhu
Soutien technique & logistique : Manuel Goepfert

Contact : metmap@orbifly.com




SOURCES & CREDITS :

   NOAA